Time;durP1;ratioP1;P1;durP2;ratioP2;P2;SDS_P1;SDS_P2;PMS_P1;PMS_P2;Temp;Humidity;BMP_temperature;BMP_pressure;BME280_temperature;BME280_humidity;BME280_pressure;Samples;Min_cycle;Max_cycle;Signal;HPM_P1;HPM_P2
2023/07/10 00:02:22;;;;;;;6.97;2.90;;;;;;;19.17;78.45;101834.00;5264380;28;20064;-72
2023/07/10 00:04:53;;;;;;;8.43;3.13;;;;;;;19.18;79.12;101834.88;5264755;28;20460;-73
2023/07/10 00:07:24;;;;;;;9.00;3.50;;;;;;;19.20;78.94;101839.19;5264739;28;20040;-73
2023/07/10 00:09:56;;;;;;;6.93;2.93;;;;;;;19.20;79.21;101840.97;5264621;28;20033;-73
2023/07/10 00:12:27;;;;;;;6.47;3.07;;;;;;;19.18;78.46;101845.44;5246149;28;20028;-74
2023/07/10 00:14:59;;;;;;;7.27;2.77;;;;;;;19.24;78.95;101835.53;5264315;28;20029;-74
2023/07/10 00:17:30;;;;;;;4.00;2.67;;;;;;;19.22;78.53;101837.34;5264040;28;20292;-72
2023/07/10 00:20:09;;;;;;;7.17;3.37;;;;;;;19.16;79.27;101853.44;5263755;28;20037;-73
2023/07/10 00:22:40;;;;;;;9.25;3.40;;;;;;;19.21;79.93;101854.13;5263304;28;20036;-72
2023/07/10 00:25:15;;;;;;;7.63;2.97;;;;;;;19.07;81.34;101853.72;5264216;28;20383;-74
2023/07/10 00:27:49;;;;;;;8.27;3.33;;;;;;;18.85;81.87;101846.47;5264267;28;20060;-73
2023/07/10 00:30:23;;;;;;;7.22;3.30;;;;;;;18.87;84.07;101839.34;5263894;28;20107;-73
2023/07/10 00:32:55;;;;;;;8.15;2.97;;;;;;;18.91;83.62;101840.09;5264148;28;20384;-73
2023/07/10 00:35:27;;;;;;;8.03;2.90;;;;;;;18.99;86.22;101835.44;5264150;28;20048;-73
2023/07/10 00:38:01;;;;;;;7.80;3.28;;;;;;;18.89;86.02;101824.28;5263832;28;20053;-73
2023/07/10 00:40:34;;;;;;;9.18;3.47;;;;;;;18.73;85.86;101834.44;5263984;28;20123;-73
2023/07/10 00:43:24;;;;;;;5.45;2.80;;;;;;;18.80;85.93;101836.91;5263318;28;20037;-74
2023/07/10 00:46:03;;;;;;;8.35;2.88;;;;;;;18.77;84.53;101846.66;5264004;28;20032;-74
2023/07/10 00:48:43;;;;;;;7.95;3.08;;;;;;;18.80;85.59;101850.97;5264062;28;20033;-74
2023/07/10 00:51:22;;;;;;;8.55;3.10;;;;;;;18.66;84.78;101851.38;5263863;28;20027;-74
2023/07/10 00:53:55;;;;;;;6.45;3.47;;;;;;;18.68;85.63;101851.34;5262542;28;20036;-73
2023/07/10 00:56:39;;;;;;;10.02;3.25;;;;;;;18.75;86.25;101837.03;5263621;28;20029;-71
2023/07/10 00:59:26;;;;;;;7.45;2.90;;;;;;;18.83;85.83;101848.22;5263668;28;20116;-74
2023/07/10 01:02:16;;;;;;;6.20;3.30;;;;;;;18.79;85.47;101849.25;5263362;28;20056;-73
2023/07/10 01:04:53;;;;;;;7.63;3.05;;;;;;;18.66;84.27;101845.22;5263727;28;20029;-72
2023/07/10 01:07:27;;;;;;;9.45;3.47;;;;;;;18.63;84.79;101845.31;5263529;28;20032;-73
2023/07/10 01:10:07;;;;;;;7.47;2.75;;;;;;;18.53;83.94;101842.06;5263490;28;20025;-73
2023/07/10 01:12:41;;;;;;;6.90;3.13;;;;;;;18.58;84.59;101843.69;5262934;28;20037;-73
2023/07/10 01:15:13;;;;;;;5.95;3.13;;;;;;;18.58;85.11;101845.47;5263618;28;20082;-72
2023/07/10 01:17:46;;;;;;;10.13;3.47;;;;;;;18.60;84.07;101843.66;5263421;28;20044;-73
2023/07/10 01:20:38;;;;;;;7.85;2.90;;;;;;;18.67;84.58;101849.59;5263155;28;20036;-72
2023/07/10 01:23:10;;;;;;;9.73;3.20;;;;;;;18.65;85.21;101843.50;5263179;28;20108;-73
2023/07/10 01:25:55;;;;;;;6.67;3.03;;;;;;;18.57;83.76;101851.66;5263377;28;20037;-73
2023/07/10 01:28:28;;;;;;;6.60;2.90;;;;;;;18.58;83.18;101841.03;5263139;28;20028;-72
2023/07/10 01:31:03;;;;;;;10.95;3.33;;;;;;;18.61;84.18;101836.56;5262499;28;20093;-72
2023/07/10 01:33:42;;;;;;;11.27;3.65;;;;;;;18.50;84.12;101835.13;5263201;28;20082;-73
2023/07/10 01:36:18;;;;;;;7.45;2.88;;;;;;;18.62;84.80;101833.88;5263080;28;20491;-74
2023/07/10 01:38:56;;;;;;;6.20;2.70;;;;;;;18.65;85.10;101830.31;5263240;28;20049;-73
2023/07/10 01:41:39;;;;;;;6.00;2.80;;;;;;;18.53;85.06;101829.75;5262511;28;20035;-72
2023/07/10 01:44:13;;;;;;;6.63;3.20;;;;;;;18.52;84.55;101829.81;5262864;28;20044;-73
2023/07/10 01:46:45;;;;;;;7.15;3.28;;;;;;;18.63;86.01;101838.28;5262812;28;20032;-72
2023/07/10 01:49:27;;;;;;;7.63;3.17;;;;;;;18.62;85.51;101843.59;5262914;28;20025;-72
2023/07/10 01:52:02;;;;;;;5.60;2.92;;;;;;;18.66;86.12;101845.22;5262838;28;20064;-73
2023/07/10 01:54:33;;;;;;;7.80;3.25;;;;;;;18.59;85.76;101852.47;5263077;28;20033;-73
2023/07/10 01:57:07;;;;;;;5.35;2.85;;;;;;;18.59;87.54;101853.34;5262687;28;20087;-73
2023/07/10 01:59:38;;;;;;;6.78;3.00;;;;;;;18.61;88.06;101848.00;5262788;28;20067;-73
2023/07/10 02:02:10;;;;;;;8.80;3.23;;;;;;;18.58;86.97;101840.19;5262528;28;20468;-71
2023/07/10 02:04:41;;;;;;;7.67;3.23;;;;;;;18.36;84.46;101845.22;5261364;28;20768;-72
2023/07/10 02:07:13;;;;;;;7.30;3.00;;;;;;;18.37;85.73;101844.28;5262889;28;20272;-72
2023/07/10 02:09:44;;;;;;;6.83;2.97;;;;;;;18.25;85.69;101831.47;5262723;28;20056;-73
2023/07/10 02:12:15;;;;;;;5.10;3.00;;;;;;;18.16;84.96;101835.22;5261920;28;20057;-74
2023/07/10 02:14:47;;;;;;;8.27;3.30;;;;;;;18.22;86.00;101843.84;5261470;28;20029;-73
2023/07/10 02:17:18;;;;;;;14.93;3.10;;;;;;;18.22;86.45;101843.84;5262316;28;20060;-74
2023/07/10 02:19:49;;;;;;;6.67;3.00;;;;;;;18.18;87.13;101847.47;5262305;28;20387;-73
2023/07/10 02:22:21;;;;;;;9.77;3.33;;;;;;;18.13;86.29;101853.75;5262109;28;20119;-72
2023/07/10 02:24:52;;;;;;;6.57;3.60;;;;;;;18.17;86.87;101847.50;5262399;28;20117;-72
2023/07/10 02:27:24;;;;;;;5.97;2.87;;;;;;;18.08;86.85;101866.22;5262360;28;20435;-72
2023/07/10 02:29:55;;;;;;;7.63;2.85;;;;;;;18.02;87.48;101872.53;5262524;28;20055;-72
2023/07/10 02:32:27;;;;;;;9.37;3.77;;;;;;;18.14;88.34;101881.88;5262318;28;20033;-72
2023/07/10 02:35:01;;;;;;;7.70;3.20;;;;;;;18.02;88.11;101869.91;5262057;28;20033;-72
2023/07/10 02:37:33;;;;;;;6.75;3.20;;;;;;;17.96;89.05;101872.69;5262005;28;20087;-73
2023/07/10 02:40:05;;;;;;;6.43;3.47;;;;;;;18.00;89.81;101867.31;5262307;28;20033;-72
2023/07/10 02:42:36;;;;;;;;;;;;;;;18.14;87.99;101858.13;5264711;28;20120;-72
2023/07/10 02:45:08;;;;;;;11.20;5.57;;;;;;;17.86;91.19;101870.25;5266493;28;19995;-73
2023/07/10 02:47:40;;;;;;;9.48;5.22;;;;;;;17.84;92.33;101866.81;5266336;28;20029;-73
2023/07/10 02:50:11;;;;;;;9.20;5.70;;;;;;;17.85;93.66;101865.03;5266105;28;20033;-73
2023/07/10 02:52:43;;;;;;;11.77;6.20;;;;;;;17.79;94.20;101871.34;5266620;28;20271;-73
2023/07/10 02:55:14;;;;;;;10.33;6.60;;;;;;;17.72;94.68;101869.75;5266094;28;20033;-72
2023/07/10 02:57:49;;;;;;;10.17;6.03;;;;;;;17.68;95.00;101874.25;5266532;28;20033;-73
2023/07/10 03:00:20;;;;;;;11.77;6.22;;;;;;;17.65;95.66;101884.88;5266216;28;20114;-73
2023/07/10 03:02:55;;;;;;;9.37;6.33;;;;;;;17.67;96.52;101883.03;5265946;28;20033;-72
2023/07/10 03:05:26;;;;;;;10.43;6.85;;;;;;;17.53;97.07;101886.94;5265907;28;20369;-72
2023/07/10 03:07:58;;;;;;;10.10;6.27;;;;;;;17.60;97.56;101885.91;5266039;28;20033;-72
2023/07/10 03:10:29;;;;;;;9.37;6.73;;;;;;;17.57;98.09;101880.69;5264844;28;20491;-72
2023/07/10 03:13:01;;;;;;;11.50;6.73;;;;;;;17.54;98.45;101883.41;5264384;28;20048;-72
2023/07/10 03:15:32;;;;;;;15.20;8.33;;;;;;;17.42;99.20;101884.53;5265801;28;20095;-73
2023/07/10 03:18:04;;;;;;;12.40;7.63;;;;;;;17.42;99.40;101892.44;5265753;28;20025;-72
2023/07/10 03:20:39;;;;;;;12.33;7.33;;;;;;;17.32;100.00;101891.81;5265833;28;20044;-72
2023/07/10 03:23:11;;;;;;;10.65;8.00;;;;;;;17.29;100.00;101905.94;5265815;28;20759;-72
2023/07/10 03:25:42;;;;;;;12.20;7.97;;;;;;;17.25;100.00;101898.13;5265542;28;20151;-72
2023/07/10 03:28:15;;;;;;;12.00;7.60;;;;;;;17.27;100.00;101904.22;5265323;28;20044;-73
2023/07/10 03:30:46;;;;;;;9.45;6.90;;;;;;;17.25;100.00;101903.41;5265396;28;20086;-72
2023/07/10 03:33:19;;;;;;;10.73;7.53;;;;;;;17.11;100.00;101903.69;5265440;28;20044;-72
2023/07/10 03:35:57;;;;;;;;;;;;;;;17.24;99.40;101902.53;5265860;28;20051;-72
2023/07/10 03:38:28;;;;;;;10.02;7.45;;;;;;;17.01;100.00;101897.78;5263830;28;19960;-72
2023/07/10 03:41:00;;;;;;;15.17;7.37;;;;;;;17.06;100.00;101901.16;5264181;28;20106;-72
2023/07/10 03:43:34;;;;;;;11.30;7.03;;;;;;;17.03;100.00;101908.28;5263505;28;20060;-72
2023/07/10 03:46:05;;;;;;;10.55;6.72;;;;;;;17.03;100.00;101903.88;5265522;28;20025;-72
2023/07/10 03:48:36;;;;;;;11.57;7.40;;;;;;;17.03;100.00;101903.88;5265245;28;20029;-72
2023/07/10 03:51:08;;;;;;;9.13;7.53;;;;;;;17.03;100.00;101906.50;5265123;28;20112;-72
2023/07/10 03:53:40;;;;;;;10.55;7.47;;;;;;;16.92;100.00;101903.22;5264624;28;20068;-72
2023/07/10 03:56:11;;;;;;;9.63;6.43;;;;;;;16.97;100.00;101906.66;5264967;28;20127;-72
2023/07/10 03:58:45;;;;;;;10.15;6.57;;;;;;;16.88;100.00;101912.13;5265264;28;20032;-72
2023/07/10 04:01:16;;;;;;;8.90;6.82;;;;;;;16.93;100.00;101919.00;5264738;28;20103;-72
2023/07/10 04:03:47;;;;;;;13.23;7.60;;;;;;;16.89;100.00;101914.72;5264808;28;20029;-72
2023/07/10 04:06:19;;;;;;;11.63;7.10;;;;;;;16.85;100.00;101920.03;5264770;28;20061;-73
2023/07/10 04:08:51;;;;;;;9.80;6.63;;;;;;;16.82;99.98;101925.38;5264801;28;20119;-73
2023/07/10 04:11:22;;;;;;;9.43;6.33;;;;;;;16.86;99.83;101929.72;5264292;28;20278;-74
2023/07/10 04:13:53;;;;;;;10.53;6.50;;;;;;;16.91;100.00;101930.50;5264715;28;20495;-73
2023/07/10 04:16:27;;;;;;;10.60;7.67;;;;;;;16.86;100.00;101930.59;5264574;28;20078;-73
2023/07/10 04:18:58;;;;;;;9.75;7.82;;;;;;;16.89;100.00;101927.88;5264238;28;20472;-73
2023/07/10 04:21:31;;;;;;;11.53;7.20;;;;;;;16.90;100.00;101934.88;5264457;28;20036;-71
2023/07/10 04:24:04;;;;;;;12.80;7.88;;;;;;;16.84;100.00;101928.84;5264305;28;20029;-72
2023/07/10 04:26:35;;;;;;;11.98;8.52;;;;;;;16.88;100.00;101928.78;5264521;28;20457;-73
2023/07/10 04:29:07;;;;;;;13.47;9.50;;;;;;;16.97;100.00;101930.38;5264050;28;20039;-73
2023/07/10 04:31:38;;;;;;;16.47;10.07;;;;;;;17.07;100.00;101931.88;5263165;28;20539;-73
2023/07/10 04:34:10;;;;;;;13.83;9.77;;;;;;;16.98;100.00;101926.81;5264284;28;20064;-72
2023/07/10 04:36:42;;;;;;;14.93;10.13;;;;;;;16.93;100.00;101926.91;5264650;28;20036;-72
2023/07/10 04:39:14;;;;;;;11.85;9.85;;;;;;;17.15;100.00;101931.72;5264223;28;20053;-72
2023/07/10 04:41:45;;;;;;;14.37;10.00;;;;;;;17.16;100.00;101928.16;5262419;28;20056;-73
2023/07/10 04:44:16;;;;;;;11.80;9.57;;;;;;;17.10;100.00;101930.97;5263936;28;20025;-71
2023/07/10 04:46:48;;;;;;;16.90;10.23;;;;;;;17.09;100.00;101934.50;5264025;28;20033;-73
2023/07/10 04:49:20;;;;;;;12.40;8.93;;;;;;;17.09;100.00;101934.50;5263974;28;20487;-74
2023/07/10 04:51:51;;;;;;;14.68;9.07;;;;;;;17.05;100.00;101941.59;5266559;28;20464;-73
2023/07/10 04:54:22;;;;;;;13.23;9.13;;;;;;;16.98;100.00;101929.44;5284525;28;20036;-73
2023/07/10 04:56:54;;;;;;;16.70;10.60;;;;;;;16.91;100.00;101941.88;5284564;28;20083;-73
2023/07/10 04:59:25;;;;;;;13.90;10.30;;;;;;;16.92;100.00;101935.72;5284529;28;20460;-73
2023/07/10 05:01:57;;;;;;;14.17;9.77;;;;;;;16.99;100.00;101952.25;5284614;28;20043;-73
2023/07/10 05:04:28;;;;;;;13.50;9.10;;;;;;;16.97;100.00;101954.06;5283580;28;20040;-73
2023/07/10 05:07:02;;;;;;;12.07;9.93;;;;;;;17.04;100.00;101953.03;5284377;28;20078;-72
2023/07/10 05:09:35;;;;;;;15.13;9.73;;;;;;;17.07;100.00;101950.31;5284255;28;20036;-72
2023/07/10 05:12:07;;;;;;;14.25;9.43;;;;;;;17.02;100.00;101957.47;5283422;28;20107;-72
2023/07/10 05:14:38;;;;;;;13.77;10.05;;;;;;;16.97;100.00;101959.34;5284199;28;20033;-73
2023/07/10 05:17:10;;;;;;;15.67;11.13;;;;;;;17.03;100.00;101956.56;5284179;28;20033;-72
2023/07/10 05:19:41;;;;;;;14.50;11.70;;;;;;;17.07;100.00;101957.38;5299489;28;20103;-72
2023/07/10 05:22:13;;;;;;;13.37;10.33;;;;;;;17.21;100.00;101960.59;5283974;28;20028;-72
2023/07/10 05:24:44;;;;;;;12.07;10.57;;;;;;;17.18;100.00;101962.38;5284062;28;20107;-73
2023/07/10 05:27:15;;;;;;;14.33;9.77;;;;;;;17.21;100.00;101965.84;5283727;28;20025;-72
2023/07/10 05:29:47;;;;;;;14.43;11.00;;;;;;;17.18;99.96;101967.66;5284019;28;20081;-72
2023/07/10 05:32:18;;;;;;;12.43;10.33;;;;;;;17.29;100.00;101974.47;5283677;28;20039;-72
2023/07/10 05:34:50;;;;;;;10.80;9.10;;;;;;;17.23;99.68;101971.09;5284070;28;20028;-72
2023/07/10 05:37:21;;;;;;;14.37;9.13;;;;;;;17.30;99.91;101964.78;5283756;28;20053;-73
2023/07/10 05:39:52;;;;;;;13.03;8.37;;;;;;;17.35;99.88;101969.94;5283556;28;20024;-72
2023/07/10 05:42:24;;;;;;;14.03;8.90;;;;;;;17.46;100.00;101963.53;5283279;28;20032;-73
2023/07/10 05:44:55;;;;;;;10.87;8.87;;;;;;;17.44;99.18;101964.47;5283728;28;20031;-72
2023/07/10 05:47:27;;;;;;;13.93;7.70;;;;;;;17.46;99.03;101962.66;5283317;28;20112;-73
2023/07/10 05:49:58;;;;;;;11.50;8.50;;;;;;;17.53;99.09;101958.97;5283702;28;20039;-72
2023/07/10 05:52:29;;;;;;;15.40;7.90;;;;;;;17.61;98.14;101961.44;5283615;28;20115;-72
2023/07/10 05:55:01;;;;;;;8.60;6.33;;;;;;;17.62;96.68;101965.81;5283437;28;20037;-72
2023/07/10 05:57:32;;;;;;;10.20;7.23;;;;;;;17.67;96.66;101967.41;5283660;28;20033;-72
2023/07/10 06:00:04;;;;;;;9.67;6.93;;;;;;;17.69;96.14;101975.31;5283567;28;20112;-71
2023/07/10 06:02:36;;;;;;;10.52;6.35;;;;;;;17.81;97.30;101963.63;5283695;28;20028;-73
2023/07/10 06:05:08;;;;;;;14.37;7.20;;;;;;;17.86;95.94;101972.28;5283482;28;20048;-72
2023/07/10 06:07:39;;;;;;;10.23;6.32;;;;;;;17.90;95.63;101968.66;5283505;28;20531;-73
2023/07/10 06:10:10;;;;;;;18.27;6.43;;;;;;;17.95;94.61;101960.66;5283498;28;20162;-72
2023/07/10 06:12:42;;;;;;;12.07;6.77;;;;;;;18.06;94.52;101970.94;5282966;28;20552;-72
2023/07/10 06:15:13;;;;;;;9.17;5.70;;;;;;;18.11;91.93;101977.84;5283442;28;20499;-72
2023/07/10 06:17:44;;;;;;;9.67;5.53;;;;;;;18.16;91.29;101972.44;5286568;28;20040;-72
2023/07/10 06:20:16;;;;;;;10.27;5.53;;;;;;;18.22;90.97;101974.91;5287770;28;20028;-72
2023/07/10 06:22:48;;;;;;;10.75;5.72;;;;;;;18.18;90.08;101979.41;5287475;28;20523;-72
2023/07/10 06:25:19;;;;;;;8.20;4.87;;;;;;;18.32;90.07;101979.06;5287618;28;20033;-72
2023/07/10 06:27:51;;;;;;;11.87;5.37;;;;;;;18.23;88.57;101987.22;5287681;28;20115;-71
2023/07/10 06:30:22;;;;;;;10.77;5.30;;;;;;;18.35;88.56;101988.66;5287493;28;20040;-72
2023/07/10 06:32:53;;;;;;;10.20;5.80;;;;;;;18.35;87.24;101994.81;5286277;28;20441;-71
2023/07/10 06:35:25;;;;;;;9.53;4.90;;;;;;;18.45;89.12;101981.38;5287689;28;20109;-72
2023/07/10 06:37:56;;;;;;;12.10;5.70;;;;;;;18.51;87.06;101994.41;5287274;28;20052;-72
2023/07/10 06:40:27;;;;;;;8.13;4.90;;;;;;;18.62;87.77;101999.41;5287317;28;20511;-73
2023/07/10 06:42:59;;;;;;;11.93;6.37;;;;;;;18.70;85.38;102003.56;5286443;28;20029;-73
2023/07/10 06:45:30;;;;;;;10.23;5.33;;;;;;;18.67;84.71;101997.50;5287225;28;20024;-72
2023/07/10 06:48:02;;;;;;;15.27;6.03;;;;;;;18.69;84.24;101996.56;5285954;28;20048;-74
2023/07/10 06:50:34;;;;;;;7.30;4.47;;;;;;;18.77;82.61;101996.31;5287054;28;20032;-72
2023/07/10 06:53:05;;;;;;;6.43;4.40;;;;;;;18.87;81.38;101995.22;5286776;28;20468;-73
2023/07/10 06:55:37;;;;;;;9.27;4.05;;;;;;;18.90;79.44;102003.06;5286686;28;20154;-73
2023/07/10 06:58:08;;;;;;;11.87;4.03;;;;;;;18.97;77.26;101995.81;5285648;28;20120;-73
2023/07/10 07:00:39;;;;;;;10.10;4.03;;;;;;;19.05;77.86;102004.38;5286925;28;20024;-73
2023/07/10 07:03:11;;;;;;;10.70;4.47;;;;;;;19.09;77.43;101991.94;5286814;28;20032;-72
2023/07/10 07:05:43;;;;;;;10.53;3.47;;;;;;;19.22;76.75;101997.72;5287009;28;20052;-71
2023/07/10 07:08:17;;;;;;;10.20;4.25;;;;;;;19.19;75.51;101988.13;5285356;28;20028;-71
2023/07/10 07:10:51;;;;;;;11.00;3.92;;;;;;;19.24;75.22;101990.59;5286567;28;20418;-71
2023/07/10 07:13:22;;;;;;;12.77;3.88;;;;;;;19.38;75.74;101991.06;5285847;28;20223;-72
2023/07/10 07:15:55;;;;;;;9.20;4.17;;;;;;;19.37;73.50;102001.69;5286205;28;20446;-71
2023/07/10 07:18:26;;;;;;;10.13;3.90;;;;;;;19.42;73.56;101998.00;5286504;28;20074;-72
2023/07/10 07:20:58;;;;;;;10.43;3.53;;;;;;;19.60;74.82;101991.28;5285279;28;20040;-72
2023/07/10 07:23:29;;;;;;;9.00;4.07;;;;;;;19.73;73.54;102001.47;5286491;28;20356;-72
2023/07/10 07:26:01;;;;;;;9.10;3.80;;;;;;;19.76;73.50;102009.34;5286092;28;20119;-73
2023/07/10 07:28:32;;;;;;;7.40;3.57;;;;;;;19.88;73.33;102011.56;5285814;28;20064;-72
2023/07/10 07:31:04;;;;;;;11.80;4.00;;;;;;;19.94;75.18;102014.03;5286212;28;20037;-73
2023/07/10 07:33:36;;;;;;;10.15;4.20;;;;;;;20.03;72.36;102010.25;5286361;28;20032;-72
2023/07/10 07:36:07;;;;;;;10.50;4.20;;;;;;;19.97;72.02;102024.53;5286342;28;20035;-72
2023/07/10 07:38:39;;;;;;;11.38;4.72;;;;;;;20.07;74.03;102021.59;5285985;28;20048;-73
2023/07/10 07:41:10;;;;;;;11.50;4.83;;;;;;;20.10;75.65;102016.19;5286294;28;20460;-72
2023/07/10 07:43:42;;;;;;;10.35;5.43;;;;;;;20.22;73.66;102019.28;5285626;28;20043;-72
2023/07/10 07:46:14;;;;;;;11.13;4.57;;;;;;;20.14;72.53;102018.69;5286089;28;20056;-72
2023/07/10 07:48:45;;;;;;;9.85;5.03;;;;;;;19.99;72.32;102025.31;5286116;28;20150;-73
2023/07/10 07:51:17;;;;;;;11.80;4.17;;;;;;;20.14;72.51;102020.44;5286006;28;20151;-72
2023/07/10 07:54:02;;;;;;;11.05;5.50;;;;;;;20.22;71.88;102019.28;5286269;28;20035;-72
2023/07/10 07:56:33;;;;;;;9.68;4.05;;;;;;;20.18;70.30;102019.44;5285882;28;20037;-72
2023/07/10 07:59:05;;;;;;;12.17;4.83;;;;;;;20.17;68.86;102020.34;5285823;28;20532;-72
2023/07/10 08:01:36;;;;;;;10.00;3.87;;;;;;;20.27;69.47;102011.19;5284727;28;20082;-72
2023/07/10 08:04:07;;;;;;;9.40;5.13;;;;;;;20.29;68.81;102008.50;5286378;28;20032;-70
2023/07/10 08:06:39;;;;;;;8.60;3.27;;;;;;;20.47;68.03;102002.53;5285600;28;20316;-71
2023/07/10 08:09:10;;;;;;;8.33;3.77;;;;;;;20.46;66.64;102005.25;5286432;28;20029;-71
2023/07/10 08:11:41;;;;;;;10.70;3.57;;;;;;;20.54;67.35;101996.13;5287411;28;20036;-70
2023/07/10 08:14:13;;;;;;;9.83;3.33;;;;;;;20.59;65.82;102001.25;5287175;28;20039;-72
2023/07/10 08:16:44;;;;;;;10.67;3.20;;;;;;;20.70;63.94;102001.75;5287218;28;20060;-71
2023/07/10 08:19:16;;;;;;;7.93;3.17;;;;;;;20.81;64.65;102003.16;5288825;28;20116;-72
2023/07/10 08:21:47;;;;;;;9.00;3.17;;;;;;;20.88;64.98;102008.19;5289753;28;20028;-73
2023/07/10 08:24:18;;;;;;;11.27;3.57;;;;;;;20.72;63.93;101994.63;5290721;28;20059;-73
2023/07/10 08:26:50;;;;;;;11.83;4.90;;;;;;;21.00;64.23;102000.72;5289683;28;20029;-72
2023/07/10 08:29:24;;;;;;;9.35;3.15;;;;;;;21.08;63.76;102009.25;5290851;28;20032;-72
2023/07/10 08:31:57;;;;;;;10.07;3.33;;;;;;;21.22;64.07;102001.63;5289635;28;20084;-73
2023/07/10 08:34:30;;;;;;;10.63;3.45;;;;;;;21.23;62.38;102015.75;5288714;28;20029;-71
2023/07/10 08:37:02;;;;;;;9.50;3.33;;;;;;;21.30;61.32;101999.53;5287102;28;20032;-72
2023/07/10 08:39:33;;;;;;;8.03;2.80;;;;;;;21.59;60.89;102004.66;5285008;28;20556;-72
2023/07/10 08:42:18;;;;;;;9.20;3.83;;;;;;;21.64;60.00;102008.88;5285858;28;20137;-71
2023/07/10 08:44:51;;;;;;;10.55;3.30;;;;;;;21.73;61.71;102006.75;5285321;28;20024;-72
2023/07/10 08:47:26;;;;;;;10.45;3.30;;;;;;;21.82;62.55;101999.28;5284886;28;20063;-71
2023/07/10 08:50:10;;;;;;;9.38;3.60;;;;;;;21.78;58.95;102008.31;5284944;28;20033;-71
2023/07/10 08:53:02;;;;;;;8.57;2.90;;;;;;;21.76;57.96;101996.88;5283828;28;20036;-72
2023/07/10 08:55:43;;;;;;;9.38;2.97;;;;;;;21.80;56.77;102000.25;5284818;28;20028;-72
2023/07/10 08:58:19;;;;;;;10.45;3.15;;;;;;;21.88;58.45;102002.59;5284796;28;20090;-71
2023/07/10 09:00:56;;;;;;;11.85;2.53;;;;;;;21.77;52.47;102005.72;5285307;28;20436;-72
2023/07/10 09:03:33;;;;;;;8.55;2.75;;;;;;;21.83;55.55;102009.00;5283676;28;20379;-72
2023/07/10 09:06:09;;;;;;;8.68;2.63;;;;;;;22.00;56.26;102010.94;5284636;28;20385;-73
2023/07/10 09:08:42;;;;;;;8.38;2.58;;;;;;;22.28;56.13;102008.91;5284305;28;20032;-72
2023/07/10 09:11:15;;;;;;;8.73;2.67;;;;;;;22.32;54.86;102013.22;5284317;28;20032;-73
2023/07/10 09:13:52;;;;;;;7.72;2.95;;;;;;;22.40;58.60;102013.75;5283662;28;20464;-73
2023/07/10 09:16:23;;;;;;;7.38;2.88;;;;;;;22.42;56.06;102006.56;5284268;28;20035;-72
2023/07/10 09:19:14;;;;;;;8.03;3.17;;;;;;;22.59;56.57;102000.53;5284170;28;20036;-73
2023/07/10 09:21:47;;;;;;;6.20;2.55;;;;;;;22.40;55.13;102006.63;5284260;28;20031;-73
2023/07/10 09:24:19;;;;;;;;;;;;;;;22.74;56.70;102007.78;5284293;28;20110;-72
2023/07/10 09:26:50;;;;;;;7.60;2.45;;;;;;;22.81;55.05;102011.03;5284412;28;19919;-73
2023/07/10 09:29:34;;;;;;;6.47;2.40;;;;;;;22.78;55.40;102013.84;5284038;28;20040;-72
2023/07/10 09:32:12;;;;;;;10.60;3.95;;;;;;;22.87;58.67;101999.28;5282873;28;20043;-72
2023/07/10 09:34:53;;;;;;;7.28;2.80;;;;;;;23.07;55.91;102011.66;5283958;28;20020;-73
2023/07/10 09:37:33;;;;;;;6.00;2.65;;;;;;;23.14;52.79;101996.34;5283702;28;20157;-72
2023/07/10 09:40:34;;;;;;;8.32;2.88;;;;;;;23.39;53.81;102011.97;5284031;28;20546;-74
2023/07/10 09:43:14;;;;;;;10.32;3.22;;;;;;;22.95;53.42;102007.78;5283301;28;20478;-72
2023/07/10 09:45:48;;;;;;;7.30;3.10;;;;;;;23.32;55.53;102005.25;5282868;28;20036;-73
2023/07/10 09:48:35;;;;;;;7.70;3.40;;;;;;;23.64;53.02;102006.34;5283691;28;20047;-73
2023/07/10 09:51:10;;;;;;;9.90;3.47;;;;;;;23.74;50.65;102002.28;5283629;28;20036;-72
2023/07/10 09:53:46;;;;;;;8.25;2.58;;;;;;;23.96;50.97;101996.81;5283766;28;20028;-72
2023/07/10 09:56:27;;;;;;;6.18;2.58;;;;;;;23.92;49.50;102010.34;5283366;28;20028;-73
2023/07/10 09:58:58;;;;;;;8.95;3.00;;;;;;;23.83;51.07;102017.00;5283572;28;20020;-73
2023/07/10 10:01:31;;;;;;;11.17;3.43;;;;;;;23.61;48.25;102020.66;5282250;28;20032;-73
2023/07/10 10:04:03;;;;;;;10.15;2.70;;;;;;;23.92;49.89;102010.34;5283339;28;20029;-72
2023/07/10 10:06:35;;;;;;;8.00;3.22;;;;;;;23.77;46.54;102009.28;5283134;28;20060;-72
2023/07/10 10:09:23;;;;;;;9.57;2.80;;;;;;;23.61;48.22;102001.19;5283471;28;20404;-73
2023/07/10 10:12:01;;;;;;;5.18;1.80;;;;;;;23.31;48.04;102004.34;5283084;28;20066;-73
2023/07/10 10:14:43;;;;;;;12.00;3.63;;;;;;;23.48;47.47;101998.25;5283507;28;20040;-73
2023/07/10 10:17:20;;;;;;;10.90;2.33;;;;;;;24.02;47.70;101999.16;5283614;28;20032;-72
2023/07/10 10:20:08;;;;;;;9.75;2.72;;;;;;;24.68;47.81;102002.94;5265720;28;20190;-73
2023/07/10 10:22:40;;;;;;;7.38;2.78;;;;;;;24.68;45.81;101997.59;5283447;28;20068;-72
2023/07/10 10:25:16;;;;;;;5.30;2.10;;;;;;;25.16;45.96;101999.47;5283178;28;20074;-73
2023/07/10 10:28:05;;;;;;;5.78;2.20;;;;;;;25.18;45.76;101992.25;5283134;28;20290;-73
2023/07/10 10:31:01;;;;;;;5.70;2.53;;;;;;;25.37;43.78;101992.97;5283049;28;20025;-72
2023/07/10 10:33:52;;;;;;;6.30;2.60;;;;;;;25.12;44.18;101996.13;5283300;28;20040;-73
2023/07/10 10:36:48;;;;;;;12.02;2.85;;;;;;;25.67;44.14;102000.19;5282909;28;20511;-73
2023/07/10 10:39:26;;;;;;;10.38;2.70;;;;;;;25.57;45.50;102004.34;5282631;28;20078;-73
2023/07/10 10:42:10;;;;;;;7.15;2.92;;;;;;;24.79;44.65;101998.81;5282806;28;20376;-71
2023/07/10 10:45:03;;;;;;;8.43;2.75;;;;;;;24.34;46.32;101993.13;5282791;28;20376;-72
2023/07/10 10:48:01;;;;;;;9.45;2.80;;;;;;;24.24;50.56;101983.91;5283027;28;20032;-72
2023/07/10 10:50:43;;;;;;;7.93;2.80;;;;;;;24.36;46.83;101996.59;5282642;28;20067;-74
2023/07/10 10:53:34;;;;;;;4.87;2.20;;;;;;;25.71;44.58;101996.38;5282726;28;20037;-72
2023/07/10 10:56:24;;;;;;;9.85;3.25;;;;;;;25.45;43.86;101996.09;5282691;28;20098;-73
2023/07/10 10:59:17;;;;;;;6.40;2.63;;;;;;;24.89;42.38;102002.69;5282710;28;20025;-72
2023/07/10 11:02:00;;;;;;;;;;;;;;;26.04;42.76;102014.09;5283435;28;20379;-73
2023/07/10 11:04:40;;;;;;;7.55;2.42;;;;;;;26.59;42.38;102014.44;5286371;28;19912;-74
2023/07/10 11:07:16;;;;;;;7.28;2.53;;;;;;;26.94;41.14;102022.97;5286467;28;20024;-72
2023/07/10 11:10:13;;;;;;;8.02;2.65;;;;;;;26.22;41.00;102017.50;5286949;28;20033;-72
2023/07/10 11:12:44;;;;;;;10.38;3.80;;;;;;;26.21;42.87;102007.75;5282647;28;20511;-73
2023/07/10 11:15:21;;;;;;;6.97;2.53;;;;;;;26.77;40.68;102010.63;5286602;28;20064;-73
2023/07/10 11:17:54;;;;;;;7.53;3.03;;;;;;;26.58;41.13;102008.19;5287031;28;20357;-72
2023/07/10 11:20:26;;;;;;;7.20;2.88;;;;;;;26.25;41.37;102003.09;5286461;28;20028;-74
2023/07/10 11:23:00;;;;;;;5.93;2.42;;;;;;;26.71;41.32;102006.53;5286711;28;20032;-72
2023/07/10 11:25:38;;;;;;;8.52;3.10;;;;;;;25.95;40.84;101994.13;5286744;28;20032;-73
2023/07/10 11:28:25;;;;;;;8.55;2.75;;;;;;;26.66;42.56;101989.03;5286596;28;20060;-72
2023/07/10 11:31:34;;;;;;;5.13;2.55;;;;;;;26.49;39.69;101998.94;5287379;28;20025;-75
2023/07/10 11:34:05;;;;;;;11.55;3.58;;;;;;;27.26;39.45;101978.09;5286262;28;20037;-73
2023/07/10 11:36:38;;;;;;;;;;;;;;;28.70;36.49;101984.59;5287041;28;20090;-74
2023/07/10 11:39:17;;;;;;;7.38;2.63;;;;;;;28.33;37.27;101977.25;5285912;28;19916;-71
2023/07/10 11:41:48;;;;;;;8.13;2.50;;;;;;;27.76;37.83;101980.25;5285817;28;20048;-73
2023/07/10 11:44:29;;;;;;;;;;;;;;;27.59;37.40;101974.19;5285571;28;20419;-73
2023/07/10 11:47:17;;;;;;;8.07;2.88;;;;;;;27.78;37.54;101976.50;5285990;28;19913;-72
2023/07/10 11:49:51;;;;;;;7.22;2.28;;;;;;;28.25;36.62;101976.09;5286042;28;20452;-73
2023/07/10 11:52:28;;;;;;;6.32;2.40;;;;;;;28.35;36.00;101969.13;5285896;28;20114;-73
2023/07/10 11:55:05;;;;;;;6.43;2.63;;;;;;;27.34;37.00;101966.03;5285776;28;20025;-73
2023/07/10 11:57:37;;;;;;;6.38;2.50;;;;;;;26.43;39.36;101972.56;5286015;28;20414;-73